Moses Lake, WA

11:49 AM PDT on September 17, 2014 (GMT -0700)
Grant County International | Change Station
CLOSE
Current Station
Airport
Location: Moses Lake,
Elevation: 1184 ft
Nearby Weather Stations

Elev 1184 ft 47.21 °N, 119.32 °W | Updated 57 minutes ago

Partly Cloudy
Partly Cloudy
73 °F
Feels Like 73 °F
N
4
Wind Variable Wind from South

Today
High -- | Low -- °F
--% Chance of Precip.
Yesterday
High -- | Low -- °F
Precip. -- in
6:37 AM 7:04 PM
Waning Crescent, 34% visible
Pressure 29.77 in
Visibility 10.0 miles
Clouds Clear
Dew Point 43 °F
Humidity 33%
Rainfall 0.00 in
Snow Depth 0 in , 0 in , 0 in
UV 5 out of 12
Pollen 2.80 out of 12
Air Quality Not available.
Flu Activity Not available.
METAR KMWH 171752Z 18003KT 10SM CLR 23/06 A2977

More Conditions Fewer Conditions

Pressure 29.77 in
Visibility 10.0 miles
Clouds Clear
Dew Point 43 °F
Humidity 33%
Rainfall 0.00 in
Snow Depth 0 in , 0 in , 0 in
UV 5 out of 12
Pollen 2.80 out of 12
Air Quality Not available.
Flu Activity Not available.
METAR KMWH 171752Z 18003KT 10SM CLR 23/06 A2977

More Conditions Fewer Conditions

10-Day Weather Forecast

Almanac

Astronomy

Sep. 17, 2014 Rise Set
Actual Time 6:37 AM PDT 7:04 PM PDT
Civil Twilight 6:06 AM PDT 7:35 PM PDT
Nautical Twilight 5:30 AM PDT 8:11 PM PDT
Astronomical Twilight 4:52 AM PDT 8:49 PM PDT
Moon 12:24 AM PDT 3:34 PM PDT
Length of Visible Light 13h 28m
Length of Day
12h 27m
Tomorrow will be 3m 21s shorter.
Waning Crescent, 34% of the Moon is Illuminated
Today
Waning Crescent
Sep 24
New
Oct 1
First Quarter
Oct 8
Full
Oct 15
Last Quarter

Today's Extremes

State Highs State Lows

Community

WunderPhotos

Upload Photos

1,754,127 photos uploaded!

WunderBlogs® & News

Nearby

Snow Depth

Station Depth Elevation
Pope Ridge 0 in 3540 ft
Trough 0 in 5300 ft
Quartz Peak 0 in 4700 ft
Wells Creek 0 in 4200 ft
Grouse Camp 0 in 5380 ft

Earthquake Activity

City Distance Mag. Time & Date
No recent earthquake activity has been reported nearby.
Minimum magnitude displayed is 2.5.

Coastal Water Temperatures

Place Temperature
No Stations Reporting

Nearby Weather Stations